sensor_id;sensor_type;location;lat;lon;timestamp;temperature;humidity
13405;DHT22;6773;51.192;7.024;2023-03-24T00:00:10;11.20;99.90
13405;DHT22;6773;51.192;7.024;2023-03-24T00:02:38;11.20;99.90
13405;DHT22;6773;51.192;7.024;2023-03-24T00:05:06;11.10;99.90
13405;DHT22;6773;51.192;7.024;2023-03-24T00:07:32;11.20;99.90
13405;DHT22;6773;51.192;7.024;2023-03-24T00:14:51;11.20;99.90
13405;DHT22;6773;51.192;7.024;2023-03-24T00:17:19;11.20;99.90
13405;DHT22;6773;51.192;7.024;2023-03-24T00:24:42;11.30;99.90
13405;DHT22;6773;51.192;7.024;2023-03-24T00:29:38;11.30;99.90
13405;DHT22;6773;51.192;7.024;2023-03-24T00:32:04;11.30;99.90
13405;DHT22;6773;51.192;7.024;2023-03-24T00:36:58;11.30;99.90
13405;DHT22;6773;51.192;7.024;2023-03-24T00:41:50;11.40;99.90
13405;DHT22;6773;51.192;7.024;2023-03-24T00:44:15;11.40;99.90
13405;DHT22;6773;51.192;7.024;2023-03-24T00:46:45;11.40;99.90
13405;DHT22;6773;51.192;7.024;2023-03-24T00:49:20;11.30;99.90
13405;DHT22;6773;51.192;7.024;2023-03-24T00:57:01;11.20;99.90
13405;DHT22;6773;51.192;7.024;2023-03-24T00:59:28;11.20;99.90
13405;DHT22;6773;51.192;7.024;2023-03-24T01:01:54;11.30;99.90
13405;DHT22;6773;51.192;7.024;2023-03-24T01:04:21;11.20;99.90
13405;DHT22;6773;51.192;7.024;2023-03-24T01:09:17;11.20;99.90
13405;DHT22;6773;51.192;7.024;2023-03-24T01:14:10;11.20;99.90
13405;DHT22;6773;51.192;7.024;2023-03-24T01:16:35;11.20;99.90
13405;DHT22;6773;51.192;7.024;2023-03-24T01:21:28;11.20;99.90
13405;DHT22;6773;51.192;7.024;2023-03-24T01:23:53;11.30;99.90
13405;DHT22;6773;51.192;7.024;2023-03-24T01:26:19;11.30;99.90
13405;DHT22;6773;51.192;7.024;2023-03-24T01:28:45;11.30;99.90
13405;DHT22;6773;51.192;7.024;2023-03-24T01:33:37;11.40;99.90
13405;DHT22;6773;51.192;7.024;2023-03-24T01:36:04;11.40;99.90
13405;DHT22;6773;51.192;7.024;2023-03-24T01:38:30;11.40;99.90
13405;DHT22;6773;51.192;7.024;2023-03-24T01:40:56;11.40;99.90
13405;DHT22;6773;51.192;7.024;2023-03-24T01:43:24;11.40;99.90
13405;DHT22;6773;51.192;7.024;2023-03-24T01:46:12;11.50;99.90
13405;DHT22;6773;51.192;7.024;2023-03-24T01:51:11;11.50;99.90
13405;DHT22;6773;51.192;7.024;2023-03-24T01:53:44;11.60;99.90
13405;DHT22;6773;51.192;7.024;2023-03-24T01:58:40;11.60;99.90
13405;DHT22;6773;51.192;7.024;2023-03-24T02:01:08;11.50;99.90
13405;DHT22;6773;51.192;7.024;2023-03-24T02:03:34;11.50;99.90
13405;DHT22;6773;51.192;7.024;2023-03-24T02:06:03;11.60;99.90
13405;DHT22;6773;51.192;7.024;2023-03-24T02:08:45;11.60;99.90
13405;DHT22;6773;51.192;7.024;2023-03-24T02:11:13;11.50;99.90
13405;DHT22;6773;51.192;7.024;2023-03-24T02:13:38;11.50;99.90
13405;DHT22;6773;51.192;7.024;2023-03-24T02:22:04;11.50;99.90
13405;DHT22;6773;51.192;7.024;2023-03-24T02:27:46;11.50;99.90
13405;DHT22;6773;51.192;7.024;2023-03-24T02:47:23;11.90;99.90
13405;DHT22;6773;51.192;7.024;2023-03-24T02:52:38;11.90;99.90
13405;DHT22;6773;51.192;7.024;2023-03-24T02:55:28;11.90;99.90
13405;DHT22;6773;51.192;7.024;2023-03-24T02:58:06;11.90;99.90
13405;DHT22;6773;51.192;7.024;2023-03-24T03:00:38;12.00;99.90
13405;DHT22;6773;51.192;7.024;2023-03-24T03:03:17;12.10;99.90
13405;DHT22;6773;51.192;7.024;2023-03-24T03:05:52;12.30;99.90
13405;DHT22;6773;51.192;7.024;2023-03-24T03:08:23;12.40;99.90
13405;DHT22;6773;51.192;7.024;2023-03-24T03:10:52;12.50;99.90
13405;DHT22;6773;51.192;7.024;2023-03-24T03:13:51;12.50;99.90
13405;DHT22;6773;51.192;7.024;2023-03-24T03:19:14;12.50;99.90
13405;DHT22;6773;51.192;7.024;2023-03-24T03:21:43;12.50;99.90
13405;DHT22;6773;51.192;7.024;2023-03-24T03:24:37;12.50;99.90
13405;DHT22;6773;51.192;7.024;2023-03-24T03:27:08;12.50;99.90
13405;DHT22;6773;51.192;7.024;2023-03-24T03:29:43;12.50;99.90
13405;DHT22;6773;51.192;7.024;2023-03-24T03:32:13;12.70;99.90
13405;DHT22;6773;51.192;7.024;2023-03-24T03:34:48;12.70;99.90
13405;DHT22;6773;51.192;7.024;2023-03-24T03:37:30;12.70;99.90
13405;DHT22;6773;51.192;7.024;2023-03-24T03:40:05;12.70;99.90
13405;DHT22;6773;51.192;7.024;2023-03-24T03:42:33;12.70;99.90
13405;DHT22;6773;51.192;7.024;2023-03-24T03:47:25;12.70;99.90
13405;DHT22;6773;51.192;7.024;2023-03-24T03:49:51;12.70;99.90
13405;DHT22;6773;51.192;7.024;2023-03-24T03:52:18;12.70;99.90
13405;DHT22;6773;51.192;7.024;2023-03-24T03:54:44;12.80;99.90
13405;DHT22;6773;51.192;7.024;2023-03-24T03:57:11;12.80;99.90
13405;DHT22;6773;51.192;7.024;2023-03-24T03:59:38;12.80;99.90
13405;DHT22;6773;51.192;7.024;2023-03-24T04:02:31;12.90;99.90
13405;DHT22;6773;51.192;7.024;2023-03-24T04:05:25;12.90;99.90
13405;DHT22;6773;51.192;7.024;2023-03-24T04:33:57;12.70;99.90
13405;DHT22;6773;51.192;7.024;2023-03-24T04:36:51;12.70;99.90
13405;DHT22;6773;51.192;7.024;2023-03-24T04:39:22;12.60;99.90
13405;DHT22;6773;51.192;7.024;2023-03-24T04:41:57;12.40;99.90
13405;DHT22;6773;51.192;7.024;2023-03-24T04:44:25;12.40;99.90
13405;DHT22;6773;51.192;7.024;2023-03-24T04:46:55;12.20;99.90
13405;DHT22;6773;51.192;7.024;2023-03-24T04:49:21;11.90;99.90
13405;DHT22;6773;51.192;7.024;2023-03-24T04:51:50;11.70;99.90
13405;DHT22;6773;51.192;7.024;2023-03-24T04:54:17;11.60;99.90
13405;DHT22;6773;51.192;7.024;2023-03-24T04:56:46;11.60;99.90
13405;DHT22;6773;51.192;7.024;2023-03-24T04:59:13;11.60;99.90
13405;DHT22;6773;51.192;7.024;2023-03-24T05:04:05;11.50;99.90
13405;DHT22;6773;51.192;7.024;2023-03-24T05:06:31;11.60;99.90
13405;DHT22;6773;51.192;7.024;2023-03-24T05:08:58;11.60;99.90
13405;DHT22;6773;51.192;7.024;2023-03-24T05:11:25;11.60;99.90
13405;DHT22;6773;51.192;7.024;2023-03-24T05:13:51;11.60;99.90
13405;DHT22;6773;51.192;7.024;2023-03-24T05:16:18;11.60;99.90
13405;DHT22;6773;51.192;7.024;2023-03-24T05:21:09;11.60;99.90
13405;DHT22;6773;51.192;7.024;2023-03-24T05:23:35;11.60;99.90
13405;DHT22;6773;51.192;7.024;2023-03-24T05:26:01;11.60;99.90
13405;DHT22;6773;51.192;7.024;2023-03-24T05:28:27;11.50;99.90
13405;DHT22;6773;51.192;7.024;2023-03-24T05:30:53;11.50;99.90
13405;DHT22;6773;51.192;7.024;2023-03-24T05:33:19;11.50;99.90
13405;DHT22;6773;51.192;7.024;2023-03-24T05:35:45;11.40;99.90
13405;DHT22;6773;51.192;7.024;2023-03-24T05:38:10;11.40;99.90
13405;DHT22;6773;51.192;7.024;2023-03-24T05:40:36;11.30;99.90
13405;DHT22;6773;51.192;7.024;2023-03-24T05:43:02;11.30;99.90
13405;DHT22;6773;51.192;7.024;2023-03-24T05:45:28;11.30;99.90
13405;DHT22;6773;51.192;7.024;2023-03-24T05:47:54;11.30;99.90
13405;DHT22;6773;51.192;7.024;2023-03-24T05:50:21;11.20;99.90
13405;DHT22;6773;51.192;7.024;2023-03-24T05:55:14;11.10;99.90
13405;DHT22;6773;51.192;7.024;2023-03-24T05:57:40;11.10;99.90
13405;DHT22;6773;51.192;7.024;2023-03-24T06:00:08;11.00;99.90
13405;DHT22;6773;51.192;7.024;2023-03-24T06:02:39;10.90;99.90
13405;DHT22;6773;51.192;7.024;2023-03-24T06:05:05;10.80;99.90
13405;DHT22;6773;51.192;7.024;2023-03-24T06:07:32;10.80;99.90
13405;DHT22;6773;51.192;7.024;2023-03-24T06:09:58;10.80;99.90
13405;DHT22;6773;51.192;7.024;2023-03-24T06:12:27;10.80;99.90
13405;DHT22;6773;51.192;7.024;2023-03-24T06:17:20;10.50;99.90
13405;DHT22;6773;51.192;7.024;2023-03-24T06:22:19;10.30;99.90
13405;DHT22;6773;51.192;7.024;2023-03-24T06:24:45;10.20;99.90
13405;DHT22;6773;51.192;7.024;2023-03-24T06:27:14;10.10;99.90
13405;DHT22;6773;51.192;7.024;2023-03-24T06:29:40;10.10;99.90
13405;DHT22;6773;51.192;7.024;2023-03-24T06:32:09;10.10;99.90
13405;DHT22;6773;51.192;7.024;2023-03-24T06:34:35;10.00;99.90
13405;DHT22;6773;51.192;7.024;2023-03-24T06:39:27;10.00;99.90
13405;DHT22;6773;51.192;7.024;2023-03-24T06:41:53;10.00;99.90
13405;DHT22;6773;51.192;7.024;2023-03-24T06:44:18;9.90;99.90
13405;DHT22;6773;51.192;7.024;2023-03-24T06:46:44;9.90;99.90
13405;DHT22;6773;51.192;7.024;2023-03-24T06:49:11;9.90;99.90
13405;DHT22;6773;51.192;7.024;2023-03-24T06:51:37;9.90;99.90
13405;DHT22;6773;51.192;7.024;2023-03-24T06:54:02;10.00;99.90
13405;DHT22;6773;51.192;7.024;2023-03-24T06:56:28;10.10;99.90
13405;DHT22;6773;51.192;7.024;2023-03-24T06:58:55;10.10;99.90
13405;DHT22;6773;51.192;7.024;2023-03-24T07:01:21;10.10;99.90
13405;DHT22;6773;51.192;7.024;2023-03-24T07:03:47;10.00;99.90
13405;DHT22;6773;51.192;7.024;2023-03-24T07:08:39;10.00;99.90
13405;DHT22;6773;51.192;7.024;2023-03-24T07:11:06;9.90;99.90
13405;DHT22;6773;51.192;7.024;2023-03-24T07:15:59;9.90;99.90
13405;DHT22;6773;51.192;7.024;2023-03-24T07:23:16;9.90;99.90
13405;DHT22;6773;51.192;7.024;2023-03-24T07:28:09;9.90;99.90
13405;DHT22;6773;51.192;7.024;2023-03-24T07:33:02;9.90;99.90
13405;DHT22;6773;51.192;7.024;2023-03-24T07:35:29;9.90;99.90
13405;DHT22;6773;51.192;7.024;2023-03-24T07:37:59;9.90;99.90
13405;DHT22;6773;51.192;7.024;2023-03-24T07:42:51;9.90;99.90
13405;DHT22;6773;51.192;7.024;2023-03-24T07:45:17;9.90;99.90
13405;DHT22;6773;51.192;7.024;2023-03-24T07:47:44;9.90;99.90
13405;DHT22;6773;51.192;7.024;2023-03-24T07:50:11;10.00;99.90
13405;DHT22;6773;51.192;7.024;2023-03-24T07:52:38;10.00;99.90
13405;DHT22;6773;51.192;7.024;2023-03-24T07:55:06;10.10;99.90
13405;DHT22;6773;51.192;7.024;2023-03-24T07:57:33;10.20;99.90
13405;DHT22;6773;51.192;7.024;2023-03-24T08:00:05;10.20;99.90
13405;DHT22;6773;51.192;7.024;2023-03-24T08:02:43;10.20;99.90
13405;DHT22;6773;51.192;7.024;2023-03-24T08:05:09;10.20;99.90
13405;DHT22;6773;51.192;7.024;2023-03-24T08:07:39;10.20;99.90
13405;DHT22;6773;51.192;7.024;2023-03-24T08:10:11;10.20;99.90
13405;DHT22;6773;51.192;7.024;2023-03-24T08:12:37;10.30;99.90
13405;DHT22;6773;51.192;7.024;2023-03-24T08:15:03;10.20;99.90
13405;DHT22;6773;51.192;7.024;2023-03-24T08:19:55;10.20;99.90
13405;DHT22;6773;51.192;7.024;2023-03-24T08:22:21;10.20;99.90
13405;DHT22;6773;51.192;7.024;2023-03-24T08:24:46;10.10;99.90
13405;DHT22;6773;51.192;7.024;2023-03-24T08:27:12;10.10;99.90
13405;DHT22;6773;51.192;7.024;2023-03-24T08:29:37;10.20;99.90
13405;DHT22;6773;51.192;7.024;2023-03-24T08:32:03;10.60;99.90
13405;DHT22;6773;51.192;7.024;2023-03-24T08:34:29;10.80;99.90
13405;DHT22;6773;51.192;7.024;2023-03-24T08:36:54;10.90;99.90
13405;DHT22;6773;51.192;7.024;2023-03-24T08:41:48;10.80;99.90
13405;DHT22;6773;51.192;7.024;2023-03-24T08:46:41;10.80;99.90
13405;DHT22;6773;51.192;7.024;2023-03-24T08:49:07;11.00;99.90
13405;DHT22;6773;51.192;7.024;2023-03-24T08:51:33;11.10;99.90
13405;DHT22;6773;51.192;7.024;2023-03-24T08:53:59;11.40;99.90
13405;DHT22;6773;51.192;7.024;2023-03-24T08:56:26;11.40;99.90
13405;DHT22;6773;51.192;7.024;2023-03-24T08:58:52;11.50;99.90
13405;DHT22;6773;51.192;7.024;2023-03-24T09:01:19;11.50;99.90
13405;DHT22;6773;51.192;7.024;2023-03-24T09:03:44;11.40;99.90
13405;DHT22;6773;51.192;7.024;2023-03-24T09:06:10;11.40;99.90
13405;DHT22;6773;51.192;7.024;2023-03-24T09:08:37;11.50;99.90
13405;DHT22;6773;51.192;7.024;2023-03-24T09:11:03;11.50;99.90
13405;DHT22;6773;51.192;7.024;2023-03-24T09:13:29;11.50;99.90
13405;DHT22;6773;51.192;7.024;2023-03-24T09:16:01;11.70;99.90
13405;DHT22;6773;51.192;7.024;2023-03-24T09:20:53;12.40;99.90
13405;DHT22;6773;51.192;7.024;2023-03-24T09:23:20;12.30;99.90
13405;DHT22;6773;51.192;7.024;2023-03-24T09:25:50;12.30;99.90
13405;DHT22;6773;51.192;7.024;2023-03-24T09:28:17;12.10;99.90
13405;DHT22;6773;51.192;7.024;2023-03-24T09:30:42;12.10;99.90
13405;DHT22;6773;51.192;7.024;2023-03-24T09:33:08;12.30;99.90
13405;DHT22;6773;51.192;7.024;2023-03-24T09:35:34;12.40;99.90
13405;DHT22;6773;51.192;7.024;2023-03-24T09:40:28;12.70;99.90
13405;DHT22;6773;51.192;7.024;2023-03-24T09:45:27;12.70;99.90
13405;DHT22;6773;51.192;7.024;2023-03-24T09:48:03;12.50;99.90
13405;DHT22;6773;51.192;7.024;2023-03-24T09:50:40;12.40;99.90
13405;DHT22;6773;51.192;7.024;2023-03-24T09:53:36;12.50;99.90
13405;DHT22;6773;51.192;7.024;2023-03-24T09:56:11;12.50;99.90
13405;DHT22;6773;51.192;7.024;2023-03-24T09:58:36;12.50;99.90
13405;DHT22;6773;51.192;7.024;2023-03-24T10:01:16;12.10;99.90
13405;DHT22;6773;51.192;7.024;2023-03-24T10:03:43;11.80;99.90
13405;DHT22;6773;51.192;7.024;2023-03-24T10:06:37;11.70;99.90
13405;DHT22;6773;51.192;7.024;2023-03-24T10:09:25;11.80;99.90
13405;DHT22;6773;51.192;7.024;2023-03-24T10:14:57;11.80;99.90
13405;DHT22;6773;51.192;7.024;2023-03-24T10:20:53;12.50;99.90
13405;DHT22;6773;51.192;7.024;2023-03-24T10:31:13;13.10;99.90
13405;DHT22;6773;51.192;7.024;2023-03-24T10:33:44;13.30;99.90
13405;DHT22;6773;51.192;7.024;2023-03-24T10:36:17;13.30;99.90
13405;DHT22;6773;51.192;7.024;2023-03-24T10:38:44;13.40;99.90
13405;DHT22;6773;51.192;7.024;2023-03-24T10:41:27;13.30;99.90
13405;DHT22;6773;51.192;7.024;2023-03-24T10:43:55;13.40;99.90
13405;DHT22;6773;51.192;7.024;2023-03-24T10:46:24;14.00;99.90
13405;DHT22;6773;51.192;7.024;2023-03-24T10:48:53;14.10;99.40
13405;DHT22;6773;51.192;7.024;2023-03-24T10:51:31;14.10;99.90
13405;DHT22;6773;51.192;7.024;2023-03-24T10:54:18;14.60;99.90
13405;DHT22;6773;51.192;7.024;2023-03-24T10:57:03;14.60;99.30
13405;DHT22;6773;51.192;7.024;2023-03-24T10:59:34;13.70;99.90
13405;DHT22;6773;51.192;7.024;2023-03-24T11:04:40;13.10;99.00
13405;DHT22;6773;51.192;7.024;2023-03-24T11:07:18;13.30;99.20
13405;DHT22;6773;51.192;7.024;2023-03-24T11:12:28;13.00;99.20
13405;DHT22;6773;51.192;7.024;2023-03-24T11:15:22;13.00;99.90
13405;DHT22;6773;51.192;7.024;2023-03-24T11:18:00;13.10;99.90
13405;DHT22;6773;51.192;7.024;2023-03-24T11:23:08;13.90;99.40
13405;DHT22;6773;51.192;7.024;2023-03-24T11:25:37;13.80;97.40
13405;DHT22;6773;51.192;7.024;2023-03-24T11:28:13;13.70;97.60
13405;DHT22;6773;51.192;7.024;2023-03-24T11:33:27;13.70;97.10
13405;DHT22;6773;51.192;7.024;2023-03-24T11:35:53;14.20;96.80
13405;DHT22;6773;51.192;7.024;2023-03-24T11:38:28;14.40;95.80
13405;DHT22;6773;51.192;7.024;2023-03-24T11:40:56;14.50;96.20
13405;DHT22;6773;51.192;7.024;2023-03-24T11:43:27;14.50;95.60
13405;DHT22;6773;51.192;7.024;2023-03-24T11:46:12;14.80;95.30
13405;DHT22;6773;51.192;7.024;2023-03-24T11:48:51;14.40;95.40
13405;DHT22;6773;51.192;7.024;2023-03-24T11:51:38;14.20;96.10
13405;DHT22;6773;51.192;7.024;2023-03-24T11:54:10;13.90;96.30
13405;DHT22;6773;51.192;7.024;2023-03-24T11:56:45;13.90;96.30
13405;DHT22;6773;51.192;7.024;2023-03-24T11:59:27;13.80;96.40
13405;DHT22;6773;51.192;7.024;2023-03-24T12:02:01;15.20;97.40
13405;DHT22;6773;51.192;7.024;2023-03-24T12:07:27;13.20;97.30
13405;DHT22;6773;51.192;7.024;2023-03-24T12:13:07;13.30;98.00
13405;DHT22;6773;51.192;7.024;2023-03-24T12:15:47;13.20;97.70
13405;DHT22;6773;51.192;7.024;2023-03-24T12:24:01;13.80;97.00
13405;DHT22;6773;51.192;7.024;2023-03-24T12:26:31;13.90;97.00
13405;DHT22;6773;51.192;7.024;2023-03-24T12:29:16;14.10;96.70
13405;DHT22;6773;51.192;7.024;2023-03-24T12:35:08;14.40;95.50
13405;DHT22;6773;51.192;7.024;2023-03-24T12:54:57;14.50;94.10
13405;DHT22;6773;51.192;7.024;2023-03-24T12:57:33;14.60;93.50
13405;DHT22;6773;51.192;7.024;2023-03-24T13:00:06;14.50;94.20
13405;DHT22;6773;51.192;7.024;2023-03-24T13:02:46;14.60;94.40
13405;DHT22;6773;51.192;7.024;2023-03-24T13:05:20;14.80;93.70
13405;DHT22;6773;51.192;7.024;2023-03-24T13:07:49;14.70;94.10
13405;DHT22;6773;51.192;7.024;2023-03-24T13:10:26;14.40;93.50
13405;DHT22;6773;51.192;7.024;2023-03-24T13:15:42;14.10;93.40
13405;DHT22;6773;51.192;7.024;2023-03-24T13:20:45;14.00;93.00
13405;DHT22;6773;51.192;7.024;2023-03-24T13:31:59;13.60;96.80
13405;DHT22;6773;51.192;7.024;2023-03-24T13:34:31;13.40;96.20
13405;DHT22;6773;51.192;7.024;2023-03-24T13:37:18;13.50;97.40
13405;DHT22;6773;51.192;7.024;2023-03-24T13:39:47;13.90;96.30
13405;DHT22;6773;51.192;7.024;2023-03-24T13:42:36;14.10;95.80
13405;DHT22;6773;51.192;7.024;2023-03-24T13:45:07;14.10;94.60
13405;DHT22;6773;51.192;7.024;2023-03-24T13:50:23;14.10;94.00
13405;DHT22;6773;51.192;7.024;2023-03-24T13:52:50;14.50;92.40
13405;DHT22;6773;51.192;7.024;2023-03-24T13:55:29;15.00;92.40
13405;DHT22;6773;51.192;7.024;2023-03-24T13:58:03;15.00;92.00
13405;DHT22;6773;51.192;7.024;2023-03-24T14:00:33;14.90;92.20
13405;DHT22;6773;51.192;7.024;2023-03-24T14:10:45;14.00;92.70
13405;DHT22;6773;51.192;7.024;2023-03-24T14:15:56;13.90;92.90
13405;DHT22;6773;51.192;7.024;2023-03-24T14:26:05;14.20;94.20
13405;DHT22;6773;51.192;7.024;2023-03-24T14:28:39;14.40;94.00
13405;DHT22;6773;51.192;7.024;2023-03-24T14:31:09;14.50;94.00
13405;DHT22;6773;51.192;7.024;2023-03-24T14:36:42;14.20;94.10
13405;DHT22;6773;51.192;7.024;2023-03-24T14:39:25;14.10;93.80
13405;DHT22;6773;51.192;7.024;2023-03-24T14:41:52;13.90;94.30
13405;DHT22;6773;51.192;7.024;2023-03-24T14:47:34;14.00;94.30
13405;DHT22;6773;51.192;7.024;2023-03-24T14:50:11;14.30;94.80
13405;DHT22;6773;51.192;7.024;2023-03-24T14:52:43;14.50;94.90
13405;DHT22;6773;51.192;7.024;2023-03-24T14:55:15;14.70;94.80
13405;DHT22;6773;51.192;7.024;2023-03-24T14:57:51;14.60;93.90
13405;DHT22;6773;51.192;7.024;2023-03-24T15:02:48;13.90;93.80
13405;DHT22;6773;51.192;7.024;2023-03-24T15:08:14;14.70;93.80
13405;DHT22;6773;51.192;7.024;2023-03-24T15:11:01;14.90;92.90
13405;DHT22;6773;51.192;7.024;2023-03-24T15:16:05;14.30;93.20
13405;DHT22;6773;51.192;7.024;2023-03-24T15:18:32;14.20;93.60
13405;DHT22;6773;51.192;7.024;2023-03-24T15:23:26;14.30;93.50
13405;DHT22;6773;51.192;7.024;2023-03-24T15:25:55;14.40;93.40
13405;DHT22;6773;51.192;7.024;2023-03-24T15:28:25;14.50;93.90
13405;DHT22;6773;51.192;7.024;2023-03-24T15:30:52;14.70;93.10
13405;DHT22;6773;51.192;7.024;2023-03-24T15:33:18;14.90;93.10
13405;DHT22;6773;51.192;7.024;2023-03-24T15:35:52;14.80;92.60
13405;DHT22;6773;51.192;7.024;2023-03-24T15:38:20;14.40;92.50
13405;DHT22;6773;51.192;7.024;2023-03-24T15:43:23;13.90;93.50
13405;DHT22;6773;51.192;7.024;2023-03-24T15:45:52;13.90;93.90
13405;DHT22;6773;51.192;7.024;2023-03-24T15:48:25;13.70;93.80
13405;DHT22;6773;51.192;7.024;2023-03-24T15:51:06;13.60;94.80
13405;DHT22;6773;51.192;7.024;2023-03-24T15:53:42;13.50;95.50
13405;DHT22;6773;51.192;7.024;2023-03-24T16:01:15;12.90;99.90
13405;DHT22;6773;51.192;7.024;2023-03-24T16:03:44;12.30;99.90
13405;DHT22;6773;51.192;7.024;2023-03-24T16:06:14;11.80;99.90
13405;DHT22;6773;51.192;7.024;2023-03-24T16:08:42;11.30;99.90
13405;DHT22;6773;51.192;7.024;2023-03-24T16:11:11;11.20;99.90
13405;DHT22;6773;51.192;7.024;2023-03-24T16:13:42;10.90;99.90
13405;DHT22;6773;51.192;7.024;2023-03-24T16:18:42;10.70;99.90
13405;DHT22;6773;51.192;7.024;2023-03-24T16:21:14;10.40;99.90
13405;DHT22;6773;51.192;7.024;2023-03-24T16:26:18;10.00;99.90
13405;DHT22;6773;51.192;7.024;2023-03-24T16:28:45;9.90;99.90
13405;DHT22;6773;51.192;7.024;2023-03-24T16:31:22;9.80;99.90
13405;DHT22;6773;51.192;7.024;2023-03-24T16:33:50;9.80;99.90
13405;DHT22;6773;51.192;7.024;2023-03-24T16:36:16;9.70;99.90
13405;DHT22;6773;51.192;7.024;2023-03-24T16:38:44;9.70;99.90
13405;DHT22;6773;51.192;7.024;2023-03-24T16:41:10;9.70;99.90
13405;DHT22;6773;51.192;7.024;2023-03-24T16:43:38;9.70;99.90
13405;DHT22;6773;51.192;7.024;2023-03-24T16:46:05;9.60;99.90
13405;DHT22;6773;51.192;7.024;2023-03-24T16:48:31;9.60;99.90
13405;DHT22;6773;51.192;7.024;2023-03-24T16:53:23;9.50;99.90
13405;DHT22;6773;51.192;7.024;2023-03-24T16:58:16;9.90;99.90
13405;DHT22;6773;51.192;7.024;2023-03-24T17:00:42;9.90;99.90
13405;DHT22;6773;51.192;7.024;2023-03-24T17:03:13;10.10;99.90
13405;DHT22;6773;51.192;7.024;2023-03-24T17:05:43;10.40;99.90
13405;DHT22;6773;51.192;7.024;2023-03-24T17:08:11;10.60;99.90
13405;DHT22;6773;51.192;7.024;2023-03-24T17:10:37;10.80;99.90
13405;DHT22;6773;51.192;7.024;2023-03-24T17:13:03;10.80;99.90
13405;DHT22;6773;51.192;7.024;2023-03-24T17:15:29;10.90;99.90
13405;DHT22;6773;51.192;7.024;2023-03-24T17:17:55;10.90;99.90
13405;DHT22;6773;51.192;7.024;2023-03-24T17:20:22;10.80;99.90
13405;DHT22;6773;51.192;7.024;2023-03-24T17:22:50;10.80;99.90
13405;DHT22;6773;51.192;7.024;2023-03-24T17:25:19;10.50;99.90
13405;DHT22;6773;51.192;7.024;2023-03-24T17:27:49;10.30;99.90
13405;DHT22;6773;51.192;7.024;2023-03-24T17:30:18;10.10;99.90
13405;DHT22;6773;51.192;7.024;2023-03-24T17:35:11;9.70;99.90
13405;DHT22;6773;51.192;7.024;2023-03-24T17:37:37;9.60;99.90
13405;DHT22;6773;51.192;7.024;2023-03-24T17:40:04;9.50;99.90
13405;DHT22;6773;51.192;7.024;2023-03-24T17:42:36;9.50;99.90
13405;DHT22;6773;51.192;7.024;2023-03-24T17:45:03;9.40;99.90
13405;DHT22;6773;51.192;7.024;2023-03-24T17:47:29;9.40;99.90
13405;DHT22;6773;51.192;7.024;2023-03-24T17:49:55;9.40;99.90
13405;DHT22;6773;51.192;7.024;2023-03-24T17:52:21;9.30;99.90
13405;DHT22;6773;51.192;7.024;2023-03-24T17:54:47;9.20;99.90
13405;DHT22;6773;51.192;7.024;2023-03-24T17:57:12;9.20;99.90
13405;DHT22;6773;51.192;7.024;2023-03-24T18:02:05;9.10;99.90
13405;DHT22;6773;51.192;7.024;2023-03-24T18:04:32;9.10;99.90
13405;DHT22;6773;51.192;7.024;2023-03-24T18:06:58;9.10;99.90
13405;DHT22;6773;51.192;7.024;2023-03-24T18:09:25;9.10;99.90
13405;DHT22;6773;51.192;7.024;2023-03-24T18:11:51;9.10;99.90
13405;DHT22;6773;51.192;7.024;2023-03-24T18:14:17;9.00;99.90
13405;DHT22;6773;51.192;7.024;2023-03-24T18:16:43;9.10;99.90
13405;DHT22;6773;51.192;7.024;2023-03-24T18:19:09;9.00;99.90
13405;DHT22;6773;51.192;7.024;2023-03-24T18:21:34;9.00;99.90
13405;DHT22;6773;51.192;7.024;2023-03-24T18:24:00;9.10;99.90
13405;DHT22;6773;51.192;7.024;2023-03-24T18:28:53;9.10;99.90
13405;DHT22;6773;51.192;7.024;2023-03-24T18:31:21;9.10;99.90
13405;DHT22;6773;51.192;7.024;2023-03-24T18:33:48;9.20;99.90
13405;DHT22;6773;51.192;7.024;2023-03-24T18:36:16;9.20;99.90
13405;DHT22;6773;51.192;7.024;2023-03-24T18:38:45;9.20;99.90
13405;DHT22;6773;51.192;7.024;2023-03-24T18:43:38;9.20;99.90
13405;DHT22;6773;51.192;7.024;2023-03-24T18:46:09;9.30;99.90
13405;DHT22;6773;51.192;7.024;2023-03-24T18:48:36;9.20;99.90
13405;DHT22;6773;51.192;7.024;2023-03-24T18:51:02;9.20;99.90
13405;DHT22;6773;51.192;7.024;2023-03-24T18:53:28;9.20;99.90
13405;DHT22;6773;51.192;7.024;2023-03-24T18:58:20;9.20;99.90
13405;DHT22;6773;51.192;7.024;2023-03-24T19:00:51;9.20;99.90
13405;DHT22;6773;51.192;7.024;2023-03-24T19:03:18;9.20;99.90
13405;DHT22;6773;51.192;7.024;2023-03-24T19:05:44;9.20;99.90
13405;DHT22;6773;51.192;7.024;2023-03-24T19:08:11;9.30;99.90
13405;DHT22;6773;51.192;7.024;2023-03-24T19:13:05;9.30;99.90
13405;DHT22;6773;51.192;7.024;2023-03-24T19:15:31;9.30;99.90
13405;DHT22;6773;51.192;7.024;2023-03-24T19:17:59;9.30;99.90
13405;DHT22;6773;51.192;7.024;2023-03-24T19:20:25;9.30;99.90
13405;DHT22;6773;51.192;7.024;2023-03-24T19:22:51;9.40;99.90
13405;DHT22;6773;51.192;7.024;2023-03-24T19:25:17;9.40;99.90
13405;DHT22;6773;51.192;7.024;2023-03-24T19:27:43;9.40;99.90
13405;DHT22;6773;51.192;7.024;2023-03-24T19:30:10;9.50;99.90
13405;DHT22;6773;51.192;7.024;2023-03-24T19:32:36;9.50;99.90
13405;DHT22;6773;51.192;7.024;2023-03-24T19:35:02;9.40;99.90
13405;DHT22;6773;51.192;7.024;2023-03-24T19:37:29;9.50;99.90
13405;DHT22;6773;51.192;7.024;2023-03-24T19:39:57;9.50;99.90
13405;DHT22;6773;51.192;7.024;2023-03-24T19:42:22;9.50;99.90
13405;DHT22;6773;51.192;7.024;2023-03-24T19:44:51;9.60;99.90
13405;DHT22;6773;51.192;7.024;2023-03-24T19:47:17;9.50;99.90
13405;DHT22;6773;51.192;7.024;2023-03-24T19:52:08;9.60;99.90
13405;DHT22;6773;51.192;7.024;2023-03-24T19:57:01;9.60;99.90
13405;DHT22;6773;51.192;7.024;2023-03-24T20:01:53;9.60;99.90
13405;DHT22;6773;51.192;7.024;2023-03-24T20:04:19;9.60;99.90
13405;DHT22;6773;51.192;7.024;2023-03-24T20:06:45;9.60;99.90
13405;DHT22;6773;51.192;7.024;2023-03-24T20:09:13;9.70;99.90
13405;DHT22;6773;51.192;7.024;2023-03-24T20:11:39;9.70;99.90
13405;DHT22;6773;51.192;7.024;2023-03-24T20:14:05;9.70;99.90
13405;DHT22;6773;51.192;7.024;2023-03-24T20:16:31;9.70;99.90
13405;DHT22;6773;51.192;7.024;2023-03-24T20:18:56;9.80;99.90
13405;DHT22;6773;51.192;7.024;2023-03-24T20:21:22;9.80;99.90
13405;DHT22;6773;51.192;7.024;2023-03-24T20:23:51;9.80;99.90
13405;DHT22;6773;51.192;7.024;2023-03-24T20:26:18;9.80;99.90
13405;DHT22;6773;51.192;7.024;2023-03-24T20:28:44;9.70;99.90
13405;DHT22;6773;51.192;7.024;2023-03-24T20:31:11;9.80;99.90
13405;DHT22;6773;51.192;7.024;2023-03-24T20:33:37;9.80;99.90
13405;DHT22;6773;51.192;7.024;2023-03-24T20:41:05;9.60;99.90
13405;DHT22;6773;51.192;7.024;2023-03-24T20:43:35;9.60;99.90
13405;DHT22;6773;51.192;7.024;2023-03-24T20:46:03;9.60;99.90
13405;DHT22;6773;51.192;7.024;2023-03-24T20:48:29;9.50;99.90
13405;DHT22;6773;51.192;7.024;2023-03-24T20:50:55;9.50;99.90
13405;DHT22;6773;51.192;7.024;2023-03-24T20:56:15;9.50;99.90
13405;DHT22;6773;51.192;7.024;2023-03-24T20:58:43;9.50;99.90
13405;DHT22;6773;51.192;7.024;2023-03-24T21:01:14;9.50;99.90
13405;DHT22;6773;51.192;7.024;2023-03-24T21:03:50;9.50;99.90